Time;durP1;ratioP1;P1;durP2;ratioP2;P2;SDS_P1;SDS_P2;PMS_P1;PMS_P2;Temp;Humidity;BMP_temperature;BMP_pressure;BME280_temperature;BME280_humidity;BME280_pressure;Samples;Min_cycle;Max_cycle;Signal;HPM_P1;HPM_P2
2023/03/31 00:02:20;;;;;;;9.82;2.95;;;;;;;10.92;97.54;100322.59;5034701;28;20053;-65
2023/03/31 00:04:58;;;;;;;12.05;3.25;;;;;;;10.89;97.99;100325.22;5034918;28;20041;-65
2023/03/31 00:07:24;;;;;;;10.65;3.10;;;;;;;10.89;98.38;100321.69;5034479;28;20054;-66
2023/03/31 00:09:56;;;;;;;6.75;2.80;;;;;;;10.87;98.76;100302.28;5033323;28;20446;-67
2023/03/31 00:12:22;;;;;;;8.95;2.95;;;;;;;10.88;99.00;100289.09;5034621;28;20040;-66
2023/03/31 00:14:47;;;;;;;6.85;2.58;;;;;;;10.84;99.01;100276.75;5032468;28;20025;-67
2023/03/31 00:17:13;;;;;;;7.72;2.55;;;;;;;10.82;99.33;100272.34;5034575;28;20029;-67
2023/03/31 00:19:40;;;;;;;6.60;2.50;;;;;;;10.81;99.85;100268.81;5033151;28;20118;-67
2023/03/31 00:22:06;;;;;;;9.60;2.70;;;;;;;10.85;99.09;100259.13;5033195;28;20025;-67
2023/03/31 00:24:32;;;;;;;10.90;2.50;;;;;;;10.81;100.00;100255.59;5034383;28;20065;-67
2023/03/31 00:27:02;;;;;;;8.70;2.65;;;;;;;10.78;100.00;100245.03;5034371;28;20561;-68
2023/03/31 00:29:28;;;;;;;10.02;3.00;;;;;;;10.77;100.00;100238.84;5034291;28;20537;-68
2023/03/31 00:31:54;;;;;;;9.52;2.88;;;;;;;10.77;100.00;100240.63;5034078;28;20042;-68
2023/03/31 00:34:20;;;;;;;8.13;2.50;;;;;;;10.72;100.00;100226.53;5034344;28;20029;-68
2023/03/31 00:36:48;;;;;;;7.95;2.75;;;;;;;10.76;100.00;100233.59;5034081;28;20090;-68
2023/03/31 00:39:16;;;;;;;10.60;2.67;;;;;;;10.71;100.00;100225.66;5032948;28;20107;-68
2023/03/31 00:41:42;;;;;;;11.73;2.50;;;;;;;10.71;100.00;100225.66;5034106;28;20037;-68
2023/03/31 00:44:23;;;;;;;9.77;2.58;;;;;;;10.73;100.00;100218.59;5033999;28;20033;-68
2023/03/31 00:46:53;;;;;;;8.02;2.38;;;;;;;10.76;100.00;100209.81;5034111;28;20474;-68
2023/03/31 00:49:30;;;;;;;7.70;2.38;;;;;;;10.73;100.00;100208.03;5034046;28;20528;-68
2023/03/31 00:52:14;;;;;;;10.60;2.60;;;;;;;10.71;100.00;100196.59;5033946;28;20113;-68
2023/03/31 00:54:44;;;;;;;10.35;2.80;;;;;;;10.68;100.00;100196.59;5033978;28;20041;-68
2023/03/31 00:57:10;;;;;;;10.68;2.58;;;;;;;10.68;100.00;100196.59;5033973;28;20418;-68
2023/03/31 00:59:40;;;;;;;8.32;2.30;;;;;;;10.66;100.00;100181.59;5034144;28;20021;-68
2023/03/31 01:02:06;;;;;;;9.35;2.50;;;;;;;10.68;100.00;100196.59;5033621;28;20022;-68
2023/03/31 01:04:36;;;;;;;9.02;2.45;;;;;;;10.67;100.00;100184.25;5033747;28;20032;-68
2023/03/31 01:07:12;;;;;;;9.52;2.50;;;;;;;10.70;100.00;100186.00;5033438;28;20049;-68
2023/03/31 01:09:38;;;;;;;8.10;2.25;;;;;;;10.67;100.00;100184.25;5033583;28;20403;-68
2023/03/31 01:12:07;;;;;;;10.02;2.70;;;;;;;10.67;100.00;100172.81;5033491;28;20035;-68
2023/03/31 01:14:33;;;;;;;9.10;2.35;;;;;;;10.65;100.00;100166.63;5033492;28;20022;-68
2023/03/31 01:16:58;;;;;;;8.13;2.28;;;;;;;10.68;100.00;100169.28;5033688;28;20048;-68
2023/03/31 01:20:12;;;;;;;11.60;2.60;;;;;;;10.69;100.00;100160.47;5033493;28;20104;-68
2023/03/31 01:23:13;;;;;;;10.30;2.90;;;;;;;10.70;100.00;100152.53;5031647;28;20029;-68
2023/03/31 01:25:57;;;;;;;10.82;2.47;;;;;;;10.71;100.00;100151.69;5033196;28;20029;-67
2023/03/31 01:28:31;;;;;;;8.43;2.35;;;;;;;10.70;100.00;100136.69;5033302;28;20586;-67
2023/03/31 01:31:27;;;;;;;9.05;2.70;;;;;;;10.73;100.00;100144.59;5033090;28;20025;-68
2023/03/31 01:34:05;;;;;;;9.43;2.50;;;;;;;10.70;100.00;100130.50;5033467;28;20382;-68
2023/03/31 01:36:56;;;;;;;9.25;2.55;;;;;;;10.68;100.00;100133.16;5033154;28;20467;-68
2023/03/31 01:39:40;;;;;;;12.48;2.78;;;;;;;10.66;100.00;100134.03;5033475;28;20025;-68
2023/03/31 01:42:38;;;;;;;8.95;2.50;;;;;;;10.66;100.00;100120.81;5033059;28;20060;-68
2023/03/31 01:45:03;;;;;;;11.20;3.67;;;;;;;10.64;100.00;100122.59;5033155;28;20052;-68
2023/03/31 01:47:57;;;;;;;10.88;2.80;;;;;;;10.61;100.00;100110.28;5033240;28;20021;-68
2023/03/31 01:50:26;;;;;;;11.88;2.70;;;;;;;10.59;100.00;100108.53;5031809;28;20032;-68
2023/03/31 01:53:01;;;;;;;15.95;3.08;;;;;;;10.59;100.00;100103.25;5031723;28;20025;-69
2023/03/31 01:55:38;;;;;;;10.63;2.80;;;;;;;10.61;100.00;100096.19;5032995;28;20014;-69
2023/03/31 01:58:20;;;;;;;12.18;2.90;;;;;;;10.61;100.00;100093.53;5033075;28;20057;-69
2023/03/31 02:00:55;;;;;;;11.18;2.83;;;;;;;10.60;100.00;100083.88;5032877;28;20033;-69
2023/03/31 02:03:24;;;;;;;14.10;2.60;;;;;;;10.60;100.00;100076.81;5032975;28;20029;-69
2023/03/31 02:05:54;;;;;;;10.75;2.60;;;;;;;10.62;100.00;100060.94;5032497;28;20538;-70
2023/03/31 02:08:29;;;;;;;11.70;2.72;;;;;;;10.60;100.00;100055.69;5032817;28;20025;-70
2023/03/31 02:10:56;;;;;;;15.82;3.08;;;;;;;10.60;100.00;100049.53;5032966;28;20041;-70
2023/03/31 02:13:24;;;;;;;9.48;3.03;;;;;;;10.59;100.00;100038.06;5031725;28;20029;-70
2023/03/31 02:15:56;;;;;;;11.88;2.78;;;;;;;10.60;100.00;100039.84;5032791;28;20100;-70
2023/03/31 02:18:29;;;;;;;11.63;2.63;;;;;;;10.57;100.00;100025.75;5032856;28;20036;-70
2023/03/31 02:20:57;;;;;;;9.55;2.60;;;;;;;10.52;100.00;100008.16;5031343;28;20475;-70
2023/03/31 02:23:28;;;;;;;10.20;2.90;;;;;;;10.50;100.00;99999.34;5032603;28;20041;-70
2023/03/31 02:26:01;;;;;;;10.85;2.80;;;;;;;10.47;100.00;99994.06;5033041;28;20029;-70
2023/03/31 02:28:27;;;;;;;9.90;3.00;;;;;;;10.48;100.00;99984.38;5031503;28;20413;-71
2023/03/31 02:31:17;;;;;;;13.60;2.88;;;;;;;10.47;100.00;99978.22;5032544;28;20076;-71
2023/03/31 02:33:42;;;;;;;11.25;3.38;;;;;;;10.50;100.00;99970.31;5032941;28;20029;-71
2023/03/31 02:36:08;;;;;;;16.55;3.42;;;;;;;10.50;100.00;99959.75;5032642;28;20029;-71
2023/03/31 02:39:05;;;;;;;10.30;2.92;;;;;;;10.51;100.00;99950.03;5033965;28;20384;-71
2023/03/31 02:41:31;;;;;;;11.93;3.42;;;;;;;10.53;100.00;99950.91;5016573;28;20065;-71
2023/03/31 02:43:57;;;;;;;12.20;2.95;;;;;;;10.51;100.00;99943.00;5036288;28;20029;-71
2023/03/31 02:46:24;;;;;;;13.63;3.25;;;;;;;10.52;100.00;99917.47;5036237;28;20021;-71
2023/03/31 02:48:54;;;;;;;11.70;2.92;;;;;;;10.51;100.00;99921.00;5036232;28;20036;-71
2023/03/31 02:51:38;;;;;;;16.38;2.90;;;;;;;10.53;100.00;99917.47;5036389;28;20021;-71
2023/03/31 02:54:35;;;;;;;18.30;3.35;;;;;;;10.56;100.00;99906.00;5034984;28;20394;-72
2023/03/31 02:57:38;;;;;;;13.88;3.17;;;;;;;10.56;100.00;99889.28;5036440;28;20017;-71
2023/03/31 03:00:35;;;;;;;11.98;2.78;;;;;;;10.51;100.00;99879.59;5036190;28;20483;-71
2023/03/31 03:03:03;;;;;;;11.48;2.90;;;;;;;10.51;100.00;99876.97;5035898;28;20086;-71
2023/03/31 03:05:48;;;;;;;9.15;2.70;;;;;;;10.50;100.00;99867.28;5035755;28;20030;-71
2023/03/31 03:08:32;;;;;;;14.02;2.90;;;;;;;10.51;100.00;99860.25;5035754;28;20075;-71
2023/03/31 03:11:13;;;;;;;15.45;3.33;;;;;;;10.48;100.00;99857.59;5035880;28;20040;-71
2023/03/31 03:13:50;;;;;;;11.32;2.88;;;;;;;10.46;100.00;99852.34;5036126;28;20036;-71
2023/03/31 03:16:24;;;;;;;13.77;2.88;;;;;;;10.45;100.00;99860.28;5035778;28;20057;-72
2023/03/31 03:19:01;;;;;;;15.30;3.17;;;;;;;10.42;100.00;99844.44;5034868;28;20099;-71
2023/03/31 03:21:30;;;;;;;12.80;2.90;;;;;;;10.38;100.00;99840.94;5035573;28;20053;-71
2023/03/31 03:23:56;;;;;;;13.77;2.80;;;;;;;10.41;100.00;99840.94;5035337;28;20079;-71
2023/03/31 03:26:26;;;;;;;18.25;2.97;;;;;;;10.38;100.00;99829.50;5035569;28;20021;-72
2023/03/31 03:28:53;;;;;;;14.18;3.10;;;;;;;10.42;100.00;99844.44;5035652;28;20021;-72
2023/03/31 03:31:19;;;;;;;15.45;3.05;;;;;;;10.42;100.00;99829.47;5034301;28;20109;-71
2023/03/31 03:33:45;;;;;;;14.30;3.40;;;;;;;10.43;100.00;99833.00;5035402;28;20467;-72
2023/03/31 03:36:11;;;;;;;13.23;2.70;;;;;;;10.44;100.00;99826.81;5035324;28;20056;-71
2023/03/31 03:38:36;;;;;;;12.68;2.90;;;;;;;10.43;100.00;99833.00;5034223;28;20067;-71
2023/03/31 03:41:02;;;;;;;13.57;3.65;;;;;;;10.41;100.00;99817.16;5035289;28;20474;-71
2023/03/31 03:43:27;;;;;;;10.48;3.03;;;;;;;10.41;100.00;99813.66;5035214;28;20026;-71
2023/03/31 03:45:53;;;;;;;15.25;3.10;;;;;;;10.38;100.00;99803.97;5035251;28;20548;-72
2023/03/31 03:48:18;;;;;;;15.20;3.00;;;;;;;10.37;100.00;99807.50;5035200;28;20032;-72
2023/03/31 03:50:45;;;;;;;12.70;2.90;;;;;;;10.36;100.00;99802.19;5035018;28;20025;-72
2023/03/31 03:53:12;;;;;;;12.40;2.88;;;;;;;10.36;100.00;99789.00;5035000;28;20025;-71
2023/03/31 03:55:37;;;;;;;13.10;2.65;;;;;;;10.36;100.00;99784.59;5035075;28;20028;-71
2023/03/31 03:58:03;;;;;;;12.68;2.80;;;;;;;10.34;100.00;99778.47;5033599;28;20025;-72
2023/03/31 04:00:28;;;;;;;16.10;2.70;;;;;;;10.32;100.00;99755.56;5028791;28;20096;-72
2023/03/31 04:02:56;;;;;;;10.85;2.47;;;;;;;10.33;100.00;99758.22;5035050;28;20398;-71
2023/03/31 04:05:21;;;;;;;10.43;2.30;;;;;;;10.29;100.00;99745.94;5034559;28;20038;-71
2023/03/31 04:07:47;;;;;;;11.98;2.70;;;;;;;10.28;100.00;99742.41;5034909;28;20032;-71
2023/03/31 04:10:12;;;;;;;13.25;3.00;;;;;;;10.26;100.00;99738.00;5033501;28;20084;-72
2023/03/31 04:12:37;;;;;;;7.05;2.20;;;;;;;10.25;100.00;99737.13;5034649;28;20475;-71
2023/03/31 04:15:04;;;;;;;12.25;2.50;;;;;;;10.26;100.00;99730.09;5034645;28;20532;-71
2023/03/31 04:17:33;;;;;;;14.38;3.25;;;;;;;10.24;100.00;99730.13;5034744;28;20026;-72
2023/03/31 04:20:04;;;;;;;12.55;2.63;;;;;;;10.24;100.00;99719.56;5034529;28;20045;-72
2023/03/31 04:22:34;;;;;;;10.93;2.67;;;;;;;10.21;100.00;99701.06;5034004;28;20025;-72
2023/03/31 04:25:15;;;;;;;11.50;2.30;;;;;;;10.21;100.00;99695.78;5034314;28;20045;-72
2023/03/31 04:27:54;;;;;;;10.30;2.67;;;;;;;10.22;100.00;99686.97;5034298;28;20069;-72
2023/03/31 04:30:29;;;;;;;6.95;2.58;;;;;;;10.20;100.00;99682.59;5032932;28;20171;-72
2023/03/31 04:32:59;;;;;;;10.48;2.72;;;;;;;10.19;100.00;99673.78;5033424;28;20033;-73
2023/03/31 04:35:37;;;;;;;14.43;3.00;;;;;;;10.20;100.00;99685.22;5034620;28;20521;-72
2023/03/31 04:38:02;;;;;;;9.27;2.33;;;;;;;10.19;100.00;99662.34;5034138;28;20053;-72
2023/03/31 04:40:28;;;;;;;10.98;2.47;;;;;;;10.19;100.00;99665.88;5034114;28;20545;-72
2023/03/31 04:42:53;;;;;;;8.70;2.25;;;;;;;10.22;100.00;99647.34;5033951;28;20022;-72
2023/03/31 04:45:18;;;;;;;8.07;2.40;;;;;;;10.21;100.00;99642.09;5034142;28;20483;-71
2023/03/31 04:47:44;;;;;;;10.38;2.42;;;;;;;10.20;100.00;99640.34;5032566;28;20038;-71
2023/03/31 04:50:10;;;;;;;6.15;2.38;;;;;;;10.15;100.00;99632.47;5033802;28;20034;-71
2023/03/31 04:52:36;;;;;;;9.25;2.47;;;;;;;10.18;100.00;99629.78;5033742;28;20033;-71
2023/03/31 04:55:02;;;;;;;8.93;2.25;;;;;;;10.19;100.00;99628.00;5033853;28;20065;-71
2023/03/31 04:57:27;;;;;;;7.80;2.20;;;;;;;10.17;100.00;99606.91;5033785;28;20054;-71
2023/03/31 04:59:53;;;;;;;10.40;2.60;;;;;;;10.16;100.00;99612.22;5033806;28;20491;-72
2023/03/31 05:02:22;;;;;;;8.82;2.60;;;;;;;10.09;100.00;99606.09;5032971;28;20447;-71
2023/03/31 05:04:49;;;;;;;8.07;2.42;;;;;;;10.14;100.00;99609.56;5033736;28;20542;-71
2023/03/31 05:07:19;;;;;;;9.57;2.75;;;;;;;10.15;100.00;99618.38;5031938;28;20040;-71
2023/03/31 05:09:45;;;;;;;8.85;2.38;;;;;;;10.13;100.00;99613.09;5033652;28;20045;-71
2023/03/31 05:12:10;;;;;;;6.82;2.30;;;;;;;10.13;100.00;99618.38;5033818;28;20430;-71
2023/03/31 05:14:38;;;;;;;11.90;2.55;;;;;;;10.11;100.00;99596.44;5033572;28;20026;-71
2023/03/31 05:17:04;;;;;;;8.00;2.30;;;;;;;10.08;100.00;99591.16;5033541;28;20033;-72
2023/03/31 05:19:30;;;;;;;9.88;2.35;;;;;;;10.08;100.00;99577.97;5033543;28;20025;-71
2023/03/31 05:21:56;;;;;;;8.27;2.42;;;;;;;10.06;100.00;99569.16;5033370;28;20062;-74
2023/03/31 05:24:21;;;;;;;9.15;2.20;;;;;;;10.04;100.00;99563.91;5033539;28;20029;-71
2023/03/31 05:26:51;;;;;;;7.57;2.42;;;;;;;10.03;100.00;99564.81;5033372;28;20533;-72
2023/03/31 05:29:17;;;;;;;6.20;2.08;;;;;;;10.02;100.00;99559.50;5033572;28;20056;-72
2023/03/31 05:31:43;;;;;;;10.05;2.50;;;;;;;10.03;100.00;99558.66;5033025;28;20029;-72
2023/03/31 05:34:08;;;;;;;7.95;2.30;;;;;;;10.03;100.00;99556.00;5033260;28;20029;-72
2023/03/31 05:36:34;;;;;;;7.90;2.13;;;;;;;10.03;100.00;99550.72;5033300;28;20026;-72
2023/03/31 05:38:59;;;;;;;10.50;2.50;;;;;;;10.02;100.00;99541.94;5033212;28;20574;-72
2023/03/31 05:41:25;;;;;;;8.43;2.47;;;;;;;10.04;100.00;99545.44;5033194;28;20032;-72
2023/03/31 05:43:50;;;;;;;9.25;2.47;;;;;;;10.02;100.00;99535.75;5033467;28;20101;-73
2023/03/31 05:46:17;;;;;;;10.25;2.60;;;;;;;10.02;100.00;99533.13;5031816;28;20033;-73
2023/03/31 05:48:43;;;;;;;7.70;2.13;;;;;;;10.01;100.00;99536.66;5033001;28;20128;-73
2023/03/31 05:51:09;;;;;;;9.35;2.38;;;;;;;10.00;100.00;99534.91;5032917;28;20044;-72
2023/03/31 05:53:35;;;;;;;9.80;2.55;;;;;;;10.00;100.00;99545.47;5033017;28;20483;-73
2023/03/31 05:56:02;;;;;;;7.25;2.15;;;;;;;10.01;100.00;99532.25;5032996;28;20017;-72
2023/03/31 05:58:29;;;;;;;5.18;2.20;;;;;;;10.05;100.00;99530.47;5033014;28;20033;-72
2023/03/31 06:01:12;;;;;;;7.50;2.10;;;;;;;10.01;100.00;99518.19;5031449;28;20053;-72
2023/03/31 06:03:41;;;;;;;7.53;2.30;;;;;;;10.01;100.00;99523.47;5032822;28;20025;-71
2023/03/31 06:06:07;;;;;;;10.45;2.63;;;;;;;10.00;100.00;99524.34;5032765;28;20045;-72
2023/03/31 06:08:34;;;;;;;6.78;2.17;;;;;;;9.98;100.00;99513.81;5032999;28;20082;-72
2023/03/31 06:11:00;;;;;;;7.03;2.20;;;;;;;9.98;100.00;99515.59;5033072;28;20025;-72
2023/03/31 06:13:25;;;;;;;9.27;2.30;;;;;;;9.96;100.00;99510.31;5034257;28;20053;-72
2023/03/31 06:15:56;;;;;;;7.45;2.33;;;;;;;9.94;100.00;99509.47;5036829;28;20029;-72
2023/03/31 06:18:22;;;;;;;7.60;2.47;;;;;;;9.97;100.00;99498.84;5036973;28;20033;-72
2023/03/31 06:20:48;;;;;;;8.50;2.20;;;;;;;10.01;100.00;99505.00;5036776;28;20108;-72
2023/03/31 06:23:13;;;;;;;10.52;2.20;;;;;;;10.00;100.00;99490.94;5036768;28;20076;-72
2023/03/31 06:25:39;;;;;;;11.10;2.35;;;;;;;9.96;100.00;99489.19;5036802;28;20024;-72
2023/03/31 06:28:07;;;;;;;8.65;2.20;;;;;;;9.98;100.00;99483.94;5036553;28;20060;-72
2023/03/31 06:30:33;;;;;;;7.90;2.47;;;;;;;9.95;100.00;99469.00;5036600;28;20083;-72
2023/03/31 06:32:58;;;;;;;8.18;2.30;;;;;;;9.95;100.00;99471.63;5036696;28;20112;-72
2023/03/31 06:35:24;;;;;;;8.75;2.50;;;;;;;9.94;100.00;99467.25;5035109;28;20390;-71
2023/03/31 06:37:49;;;;;;;7.28;2.30;;;;;;;9.96;100.00;99448.75;5036305;28;20106;-72
2023/03/31 06:40:15;;;;;;;8.50;2.40;;;;;;;9.95;100.00;99452.28;5036387;28;20030;-71
2023/03/31 06:42:40;;;;;;;8.85;2.80;;;;;;;9.99;100.00;99448.72;5036296;28;20124;-71
2023/03/31 06:45:06;;;;;;;9.77;2.30;;;;;;;10.02;100.00;99485.63;5035171;28;20099;-72
2023/03/31 06:47:31;;;;;;;9.63;2.40;;;;;;;10.03;100.00;99474.19;5036200;28;20564;-71
2023/03/31 06:49:57;;;;;;;4.88;2.20;;;;;;;10.03;100.00;99467.16;5036254;28;20025;-71
2023/03/31 06:52:22;;;;;;;11.02;2.50;;;;;;;10.06;100.00;99458.31;5036000;28;20068;-71
2023/03/31 06:54:47;;;;;;;4.55;2.13;;;;;;;10.07;100.00;99444.25;5036094;28;20076;-71
2023/03/31 06:57:13;;;;;;;7.15;2.60;;;;;;;10.07;100.00;99454.81;5036092;28;20061;-71
2023/03/31 06:59:38;;;;;;;7.82;2.50;;;;;;;10.07;100.00;99461.84;5036035;28;20028;-70
2023/03/31 07:02:04;;;;;;;10.10;2.60;;;;;;;10.08;100.00;99469.75;5035901;28;20538;-70
2023/03/31 07:04:29;;;;;;;6.80;2.40;;;;;;;10.07;100.00;99470.66;5035809;28;20033;-70
2023/03/31 07:06:57;;;;;;;11.43;3.28;;;;;;;10.08;100.00;99451.28;5035510;28;20052;-71
2023/03/31 07:09:23;;;;;;;11.57;2.88;;;;;;;10.11;100.00;99460.94;5034357;28;20056;-70
2023/03/31 07:11:48;;;;;;;10.10;3.38;;;;;;;10.09;100.00;99455.66;5035764;28;20022;-71
2023/03/31 07:14:14;;;;;;;10.60;3.03;;;;;;;10.12;100.00;99475.88;5035704;28;20398;-70
2023/03/31 07:16:39;;;;;;;13.93;3.00;;;;;;;10.12;100.00;99473.25;5035511;28;20034;-70
2023/03/31 07:19:06;;;;;;;12.52;2.88;;;;;;;10.14;100.00;99461.75;5034390;28;20029;-72
2023/03/31 07:21:32;;;;;;;10.15;2.92;;;;;;;10.17;100.00;99455.59;5035974;28;20431;-71
2023/03/31 07:23:57;;;;;;;14.65;2.88;;;;;;;10.19;100.00;99444.13;5035099;28;20432;-71
2023/03/31 07:26:23;;;;;;;9.18;2.50;;;;;;;10.20;100.00;99448.53;5035652;28;20029;-71
2023/03/31 07:28:50;;;;;;;11.55;3.00;;;;;;;10.21;100.00;99444.97;5035450;28;20064;-71
2023/03/31 07:31:16;;;;;;;9.48;2.90;;;;;;;10.23;100.00;99440.53;5035259;28;20105;-72
2023/03/31 07:33:42;;;;;;;12.77;3.42;;;;;;;10.27;100.00;99430.88;5034559;28;20041;-71
2023/03/31 07:36:08;;;;;;;10.73;3.10;;;;;;;10.27;100.00;99429.09;5035359;28;20029;-71
2023/03/31 07:38:33;;;;;;;11.98;3.25;;;;;;;10.30;100.00;99424.69;5035358;28;20026;-71
2023/03/31 07:40:59;;;;;;;10.68;2.88;;;;;;;10.32;100.00;99425.53;5035183;28;20029;-71
2023/03/31 07:43:24;;;;;;;10.73;2.50;;;;;;;10.36;100.00;99427.25;5034787;28;20032;-71
2023/03/31 07:45:50;;;;;;;9.48;2.45;;;;;;;10.41;100.00;99434.25;5033388;28;20115;-71
2023/03/31 07:48:15;;;;;;;9.10;2.63;;;;;;;10.41;100.00;99428.97;5033121;28;20018;-70
2023/03/31 07:50:41;;;;;;;10.75;2.58;;;;;;;10.47;100.00;99422.72;5032931;28;20033;-70
2023/03/31 07:53:07;;;;;;;5.43;2.10;;;;;;;10.48;100.00;99430.63;5034638;28;20105;-71
2023/03/31 07:55:32;;;;;;;8.80;2.45;;;;;;;10.52;100.00;99412.97;5034979;28;20037;-70
2023/03/31 07:57:58;;;;;;;8.80;2.55;;;;;;;10.49;100.00;99411.28;5034747;28;20383;-71
2023/03/31 08:00:24;;;;;;;8.43;2.78;;;;;;;10.58;100.00;99415.56;5035265;28;20077;-70
2023/03/31 08:02:49;;;;;;;13.15;3.30;;;;;;;10.62;100.00;99414.63;5034484;28;20108;-70
2023/03/31 08:05:17;;;;;;;12.80;3.05;;;;;;;10.71;100.00;99414.50;5034774;28;20454;-70
2023/03/31 08:07:45;;;;;;;11.93;3.17;;;;;;;10.76;100.00;99412.69;5034471;28;20045;-71
2023/03/31 08:10:18;;;;;;;15.38;3.88;;;;;;;10.78;100.00;99412.66;5034480;28;20017;-71
2023/03/31 08:12:43;;;;;;;9.40;3.25;;;;;;;10.82;100.00;99418.78;5035278;28;20053;-71
2023/03/31 08:15:10;;;;;;;12.07;3.13;;;;;;;10.85;100.00;99401.13;5034781;28;20457;-71
2023/03/31 08:17:36;;;;;;;13.70;3.17;;;;;;;10.88;100.00;99409.00;5034635;28;20022;-71
2023/03/31 08:20:05;;;;;;;15.05;3.20;;;;;;;10.92;100.00;99400.16;5034808;28;20148;-71
2023/03/31 08:22:31;;;;;;;13.80;3.25;;;;;;;10.93;100.00;99393.09;5034296;28;20537;-71
2023/03/31 08:24:56;;;;;;;14.45;4.07;;;;;;;10.96;100.00;99393.94;5034456;28;20056;-71
2023/03/31 08:27:21;;;;;;;13.60;3.45;;;;;;;11.05;100.00;99398.19;5033411;28;20033;-71
2023/03/31 08:29:47;;;;;;;18.60;3.45;;;;;;;11.09;100.00;99394.63;5034609;28;20104;-71
2023/03/31 08:32:12;;;;;;;12.18;3.60;;;;;;;11.11;100.00;99390.16;5033918;28;20496;-70
2023/03/31 08:34:41;;;;;;;19.38;3.72;;;;;;;11.17;100.00;99394.47;5034425;28;20539;-70
2023/03/31 08:37:07;;;;;;;16.73;3.53;;;;;;;11.24;100.00;99385.56;5031946;28;20140;-70
2023/03/31 08:39:33;;;;;;;14.20;3.55;;;;;;;11.27;100.00;99396.13;5034104;28;20382;-70
2023/03/31 08:42:19;;;;;;;16.33;3.65;;;;;;;11.34;100.00;99389.81;5034083;28;20479;-71
2023/03/31 08:44:58;;;;;;;18.42;3.40;;;;;;;11.36;100.00;99395.09;5034069;28;20029;-69
2023/03/31 08:47:28;;;;;;;14.73;3.25;;;;;;;11.39;100.00;99390.63;5034368;28;20034;-72
2023/03/31 08:49:58;;;;;;;19.30;3.75;;;;;;;11.44;100.00;99387.91;5033926;28;20021;-70
2023/03/31 08:52:36;;;;;;;15.55;3.75;;;;;;;11.47;100.00;99385.19;5034075;28;20021;-70
2023/03/31 08:55:06;;;;;;;16.65;3.58;;;;;;;11.47;100.00;99398.41;5033812;28;20033;-70
2023/03/31 08:58:00;;;;;;;18.45;4.38;;;;;;;11.45;100.00;99381.72;5033754;28;20037;-69
2023/03/31 09:00:30;;;;;;;16.17;3.70;;;;;;;11.50;100.00;99377.22;5033909;28;20055;-71
2023/03/31 09:03:04;;;;;;;17.42;3.60;;;;;;;11.58;100.00;99388.53;5033551;28;20037;-71
2023/03/31 09:05:38;;;;;;;13.55;3.10;;;;;;;11.66;100.00;99385.78;5033443;28;20068;-70
2023/03/31 09:08:12;;;;;;;19.52;3.75;;;;;;;11.71;100.00;99392.72;5033627;28;20059;-70
2023/03/31 09:10:51;;;;;;;16.10;3.85;;;;;;;11.77;100.00;99389.09;5033643;28;20017;-70
2023/03/31 09:13:28;;;;;;;14.10;3.22;;;;;;;11.85;100.00;99379.28;5033885;28;20378;-70
2023/03/31 09:16:06;;;;;;;18.23;3.83;;;;;;;11.93;100.00;99384.44;5032281;28;20392;-70
2023/03/31 09:18:34;;;;;;;12.85;3.17;;;;;;;12.00;100.00;99381.66;5033477;28;20471;-70
2023/03/31 09:21:30;;;;;;;17.65;3.83;;;;;;;12.08;97.92;99365.63;5033453;28;20029;-70
2023/03/31 09:24:19;;;;;;;21.60;3.92;;;;;;;12.17;96.92;99377.81;5032718;28;20402;-70
2023/03/31 09:26:55;;;;;;;15.77;3.13;;;;;;;12.23;95.07;99357.38;5031808;28;20062;-70
2023/03/31 09:29:33;;;;;;;16.80;3.28;;;;;;;12.21;92.57;99363.63;5033374;28;20021;-70
2023/03/31 09:32:09;;;;;;;15.80;3.28;;;;;;;12.22;93.72;99365.38;5033076;28;20079;-71
2023/03/31 09:34:35;;;;;;;13.82;3.60;;;;;;;12.23;92.75;99362.69;5033258;28;20031;-72
2023/03/31 09:37:00;;;;;;;16.15;3.40;;;;;;;12.22;91.90;99362.72;5033080;28;20494;-71
2023/03/31 09:39:26;;;;;;;18.27;3.85;;;;;;;12.27;90.76;99358.19;5033210;28;20029;-71
2023/03/31 09:41:53;;;;;;;17.08;3.42;;;;;;;12.27;90.87;99364.34;5033037;28;20083;-70
2023/03/31 09:44:31;;;;;;;16.13;3.45;;;;;;;12.33;90.76;99352.75;5033188;28;20112;-71
2023/03/31 09:47:00;;;;;;;12.88;3.08;;;;;;;12.34;88.88;99345.72;5032938;28;20471;-69
2023/03/31 09:49:31;;;;;;;13.82;3.30;;;;;;;12.43;89.35;99354.34;5033256;28;20025;-69
2023/03/31 09:52:06;;;;;;;16.75;3.75;;;;;;;12.47;88.27;99342.78;5031380;28;20042;-69
2023/03/31 09:54:40;;;;;;;11.63;2.90;;;;;;;12.51;88.61;99348.88;5033242;28;20025;-69
2023/03/31 09:57:23;;;;;;;13.18;3.63;;;;;;;12.61;88.42;99334.50;5033114;28;20033;-71
2023/03/31 09:59:52;;;;;;;12.15;3.47;;;;;;;12.71;88.71;99335.19;5033087;28;20464;-72
2023/03/31 10:02:46;;;;;;;14.75;3.03;;;;;;;12.75;88.34;99337.72;5032747;28;20112;-71
2023/03/31 10:05:24;;;;;;;13.02;3.00;;;;;;;12.78;85.75;99336.81;5024649;28;20062;-69
2023/03/31 10:07:50;;;;;;;12.50;3.25;;;;;;;12.84;86.69;99327.81;5032650;28;20108;-69
2023/03/31 10:10:29;;;;;;;11.85;3.00;;;;;;;12.88;85.33;99340.09;5033131;28;20029;-70
2023/03/31 10:12:55;;;;;;;13.45;3.60;;;;;;;12.86;83.79;99329.53;5032938;28;20064;-70
2023/03/31 10:15:25;;;;;;;11.18;2.78;;;;;;;12.87;82.91;99320.69;5032725;28;20511;-69
2023/03/31 10:17:51;;;;;;;13.18;3.28;;;;;;;12.89;84.63;99324.19;5033083;28;20076;-69
2023/03/31 10:20:47;;;;;;;9.00;2.70;;;;;;;12.91;83.69;99329.44;5032684;28;20022;-71
2023/03/31 10:23:22;;;;;;;11.75;3.20;;;;;;;12.90;81.69;99340.97;4984528;28;20030;-68
2023/03/31 10:25:50;;;;;;;8.32;2.90;;;;;;;12.84;82.68;99320.75;5031460;28;20064;-68
2023/03/31 10:28:18;;;;;;;13.00;2.95;;;;;;;12.85;82.66;99321.59;5032734;28;20029;-69
2023/03/31 10:30:50;;;;;;;9.63;3.05;;;;;;;12.87;79.54;99338.38;5031214;28;20021;-68
2023/03/31 10:33:21;;;;;;;14.07;2.77;;;;;;;12.88;81.17;99314.47;5032733;28;20021;-69
2023/03/31 10:35:49;;;;;;;9.88;2.97;;;;;;;12.94;80.23;99314.34;5032575;28;20088;-69
2023/03/31 10:38:23;;;;;;;16.55;3.00;;;;;;;12.92;81.80;99329.41;5032732;28;20037;-69
2023/03/31 10:40:51;;;;;;;10.38;2.67;;;;;;;12.92;83.24;99310.84;5032479;28;20033;-68
2023/03/31 10:43:20;;;;;;;11.23;2.88;;;;;;;12.88;81.53;99311.81;5032339;28;20499;-69
2023/03/31 10:45:50;;;;;;;13.35;3.30;;;;;;;12.77;82.00;99317.38;5032408;28;20510;-70
2023/03/31 10:48:38;;;;;;;9.38;2.58;;;;;;;12.75;83.03;99299.75;5032552;28;20088;-69
2023/03/31 10:51:18;;;;;;;10.65;3.08;;;;;;;12.70;83.88;99314.88;5031150;28;20112;-68
2023/03/31 10:53:47;;;;;;;12.20;2.95;;;;;;;12.74;83.61;99301.53;5032620;28;20056;-70
2023/03/31 10:56:34;;;;;;;11.88;3.03;;;;;;;12.82;83.23;99300.50;5031172;28;20029;-69
2023/03/31 10:59:24;;;;;;;17.30;3.70;;;;;;;12.85;81.29;99303.94;5033058;28;20025;-68
2023/03/31 11:02:08;;;;;;;11.75;3.25;;;;;;;12.88;81.47;99280.00;5036077;28;20029;-71
2023/03/31 11:05:04;;;;;;;12.93;2.88;;;;;;;12.93;82.14;99285.19;5035923;28;20021;-68
2023/03/31 11:07:42;;;;;;;12.48;2.63;;;;;;;12.97;80.95;99285.06;5035219;28;20046;-69
2023/03/31 11:10:30;;;;;;;9.98;3.03;;;;;;;12.92;81.26;99292.28;5035875;28;20018;-68
2023/03/31 11:13:17;;;;;;;10.18;2.72;;;;;;;12.82;83.30;99288.09;5035824;28;20112;-68
2023/03/31 11:16:28;;;;;;;11.43;2.97;;;;;;;12.74;83.52;99292.72;5035713;28;20036;-68
2023/03/31 11:19:20;;;;;;;14.00;3.63;;;;;;;12.60;85.13;99287.72;4995071;28;20128;-67
2023/03/31 11:22:01;;;;;;;15.50;3.20;;;;;;;12.53;86.97;99286.13;5035140;28;20033;-68
2023/03/31 11:24:26;;;;;;;12.10;2.80;;;;;;;12.52;86.37;99285.25;5035806;28;20116;-68
2023/03/31 11:27:17;;;;;;;16.13;3.75;;;;;;;12.54;86.50;99271.97;5035806;28;20529;-68
2023/03/31 11:30:04;;;;;;;17.60;3.63;;;;;;;12.65;87.14;99279.69;5035704;28;20037;-68
2023/03/31 11:32:45;;;;;;;16.52;3.30;;;;;;;12.73;85.24;99286.53;5035199;28;20033;-69
2023/03/31 11:35:22;;;;;;;13.55;2.90;;;;;;;12.76;86.29;99264.38;5035396;28;20108;-68
2023/03/31 11:38:10;;;;;;;14.90;3.45;;;;;;;12.90;84.56;99285.28;5035532;28;20025;-68
2023/03/31 11:40:45;;;;;;;13.43;3.70;;;;;;;12.97;81.37;99263.00;5021902;28;20030;-68
2023/03/31 11:43:19;;;;;;;19.25;3.45;;;;;;;13.03;81.64;99258.44;5035238;28;20546;-68